sensor_id;sensor_type;location;lat;lon;timestamp;P1;durP1;ratioP1;P2;durP2;ratioP2
46897;SDS011;32646;50.958;6.258;2023-12-04T00:00:23;12.77;;;5.50;;
46897;SDS011;32646;50.958;6.258;2023-12-04T00:02:50;16.75;;;5.43;;
46897;SDS011;32646;50.958;6.258;2023-12-04T00:05:17;10.85;;;5.57;;
46897;SDS011;32646;50.958;6.258;2023-12-04T00:07:43;14.10;;;5.93;;
46897;SDS011;32646;50.958;6.258;2023-12-04T00:10:10;11.45;;;4.20;;
46897;SDS011;32646;50.958;6.258;2023-12-04T00:12:37;12.68;;;4.47;;
46897;SDS011;32646;50.958;6.258;2023-12-04T00:15:04;10.68;;;3.83;;
46897;SDS011;32646;50.958;6.258;2023-12-04T00:17:31;10.63;;;4.82;;
46897;SDS011;32646;50.958;6.258;2023-12-04T00:19:57;11.75;;;4.47;;
46897;SDS011;32646;50.958;6.258;2023-12-04T00:22:24;9.90;;;3.95;;
46897;SDS011;32646;50.958;6.258;2023-12-04T00:24:51;13.07;;;4.30;;
46897;SDS011;32646;50.958;6.258;2023-12-04T00:27:17;8.27;;;4.30;;
46897;SDS011;32646;50.958;6.258;2023-12-04T00:29:44;9.15;;;3.92;;
46897;SDS011;32646;50.958;6.258;2023-12-04T00:32:10;12.27;;;3.63;;
46897;SDS011;32646;50.958;6.258;2023-12-04T00:34:37;12.43;;;4.65;;
46897;SDS011;32646;50.958;6.258;2023-12-04T00:37:04;11.27;;;4.22;;
46897;SDS011;32646;50.958;6.258;2023-12-04T00:39:30;12.60;;;4.72;;
46897;SDS011;32646;50.958;6.258;2023-12-04T00:41:57;10.98;;;3.70;;
46897;SDS011;32646;50.958;6.258;2023-12-04T00:44:24;13.93;;;5.10;;
46897;SDS011;32646;50.958;6.258;2023-12-04T00:46:50;9.20;;;4.80;;
46897;SDS011;32646;50.958;6.258;2023-12-04T00:49:17;11.00;;;4.47;;
46897;SDS011;32646;50.958;6.258;2023-12-04T00:51:44;9.50;;;4.15;;
46897;SDS011;32646;50.958;6.258;2023-12-04T00:54:11;10.40;;;4.03;;
46897;SDS011;32646;50.958;6.258;2023-12-04T00:56:38;13.57;;;5.82;;
46897;SDS011;32646;50.958;6.258;2023-12-04T00:59:05;11.80;;;4.70;;
46897;SDS011;32646;50.958;6.258;2023-12-04T01:01:35;13.98;;;5.18;;
46897;SDS011;32646;50.958;6.258;2023-12-04T01:04:02;10.30;;;5.05;;
46897;SDS011;32646;50.958;6.258;2023-12-04T01:06:29;13.68;;;4.13;;
46897;SDS011;32646;50.958;6.258;2023-12-04T01:08:56;12.32;;;4.78;;
46897;SDS011;32646;50.958;6.258;2023-12-04T01:11:23;8.85;;;4.25;;
46897;SDS011;32646;50.958;6.258;2023-12-04T01:13:50;12.25;;;4.95;;
46897;SDS011;32646;50.958;6.258;2023-12-04T01:16:17;8.35;;;3.58;;
46897;SDS011;32646;50.958;6.258;2023-12-04T01:18:43;9.50;;;5.10;;
46897;SDS011;32646;50.958;6.258;2023-12-04T01:21:10;12.05;;;4.50;;
46897;SDS011;32646;50.958;6.258;2023-12-04T01:23:37;8.82;;;3.80;;
46897;SDS011;32646;50.958;6.258;2023-12-04T01:26:03;9.52;;;4.22;;
46897;SDS011;32646;50.958;6.258;2023-12-04T01:28:30;8.25;;;3.58;;
46897;SDS011;32646;50.958;6.258;2023-12-04T01:30:57;8.65;;;3.83;;
46897;SDS011;32646;50.958;6.258;2023-12-04T01:33:24;13.18;;;4.10;;
46897;SDS011;32646;50.958;6.258;2023-12-04T01:35:50;11.05;;;3.90;;
46897;SDS011;32646;50.958;6.258;2023-12-04T01:38:17;10.65;;;4.78;;
46897;SDS011;32646;50.958;6.258;2023-12-04T01:40:44;11.38;;;4.88;;
46897;SDS011;32646;50.958;6.258;2023-12-04T01:43:10;9.63;;;3.88;;
46897;SDS011;32646;50.958;6.258;2023-12-04T01:45:37;10.02;;;4.43;;
46897;SDS011;32646;50.958;6.258;2023-12-04T01:48:04;9.52;;;4.03;;
46897;SDS011;32646;50.958;6.258;2023-12-04T01:50:33;10.52;;;4.10;;
46897;SDS011;32646;50.958;6.258;2023-12-04T01:53:00;9.55;;;4.70;;
46897;SDS011;32646;50.958;6.258;2023-12-04T01:55:28;8.30;;;3.47;;
46897;SDS011;32646;50.958;6.258;2023-12-04T01:57:55;12.30;;;4.20;;
46897;SDS011;32646;50.958;6.258;2023-12-04T02:00:22;8.25;;;3.53;;
46897;SDS011;32646;50.958;6.258;2023-12-04T02:02:49;11.65;;;3.80;;
46897;SDS011;32646;50.958;6.258;2023-12-04T02:05:16;9.93;;;5.15;;
46897;SDS011;32646;50.958;6.258;2023-12-04T02:07:43;12.05;;;4.15;;
46897;SDS011;32646;50.958;6.258;2023-12-04T02:10:10;11.48;;;4.18;;
46897;SDS011;32646;50.958;6.258;2023-12-04T02:12:37;10.63;;;4.18;;
46897;SDS011;32646;50.958;6.258;2023-12-04T02:15:04;9.35;;;3.78;;
46897;SDS011;32646;50.958;6.258;2023-12-04T02:17:31;11.18;;;3.95;;
46897;SDS011;32646;50.958;6.258;2023-12-04T02:19:59;11.85;;;4.43;;
46897;SDS011;32646;50.958;6.258;2023-12-04T02:22:26;8.50;;;4.45;;
46897;SDS011;32646;50.958;6.258;2023-12-04T02:24:52;11.35;;;4.57;;
46897;SDS011;32646;50.958;6.258;2023-12-04T02:27:23;12.30;;;4.20;;
46897;SDS011;32646;50.958;6.258;2023-12-04T02:29:56;9.13;;;3.85;;
46897;SDS011;32646;50.958;6.258;2023-12-04T02:32:28;8.88;;;3.53;;
46897;SDS011;32646;50.958;6.258;2023-12-04T02:34:56;13.70;;;5.50;;
46897;SDS011;32646;50.958;6.258;2023-12-04T02:37:25;9.52;;;4.63;;
46897;SDS011;32646;50.958;6.258;2023-12-04T02:39:52;9.57;;;4.68;;
46897;SDS011;32646;50.958;6.258;2023-12-04T02:42:19;12.27;;;4.30;;
46897;SDS011;32646;50.958;6.258;2023-12-04T02:44:46;9.65;;;4.13;;
46897;SDS011;32646;50.958;6.258;2023-12-04T02:47:12;9.73;;;3.67;;
46897;SDS011;32646;50.958;6.258;2023-12-04T02:49:39;9.27;;;4.18;;
46897;SDS011;32646;50.958;6.258;2023-12-04T02:52:06;10.32;;;4.30;;
46897;SDS011;32646;50.958;6.258;2023-12-04T02:54:32;11.77;;;3.85;;
46897;SDS011;32646;50.958;6.258;2023-12-04T02:56:59;10.50;;;4.13;;
46897;SDS011;32646;50.958;6.258;2023-12-04T02:59:25;9.13;;;3.10;;
46897;SDS011;32646;50.958;6.258;2023-12-04T03:01:52;7.63;;;3.60;;
46897;SDS011;32646;50.958;6.258;2023-12-04T03:04:19;10.30;;;4.32;;
46897;SDS011;32646;50.958;6.258;2023-12-04T03:06:46;9.23;;;3.72;;
46897;SDS011;32646;50.958;6.258;2023-12-04T03:09:13;11.23;;;3.53;;
46897;SDS011;32646;50.958;6.258;2023-12-04T03:11:40;8.48;;;3.90;;
46897;SDS011;32646;50.958;6.258;2023-12-04T03:14:07;13.93;;;4.50;;
46897;SDS011;32646;50.958;6.258;2023-12-04T03:16:34;7.05;;;3.10;;
46897;SDS011;32646;50.958;6.258;2023-12-04T03:19:00;10.43;;;3.72;;
46897;SDS011;32646;50.958;6.258;2023-12-04T03:21:27;8.23;;;3.58;;
46897;SDS011;32646;50.958;6.258;2023-12-04T03:23:54;7.22;;;3.42;;
46897;SDS011;32646;50.958;6.258;2023-12-04T03:26:21;9.20;;;3.85;;
46897;SDS011;32646;50.958;6.258;2023-12-04T03:28:47;6.75;;;3.28;;
46897;SDS011;32646;50.958;6.258;2023-12-04T03:31:14;7.70;;;3.33;;
46897;SDS011;32646;50.958;6.258;2023-12-04T03:33:41;8.75;;;3.65;;
46897;SDS011;32646;50.958;6.258;2023-12-04T03:36:07;7.45;;;3.83;;
46897;SDS011;32646;50.958;6.258;2023-12-04T03:38:34;7.68;;;2.95;;
46897;SDS011;32646;50.958;6.258;2023-12-04T03:41:01;9.85;;;3.20;;
46897;SDS011;32646;50.958;6.258;2023-12-04T03:43:28;7.63;;;3.30;;
46897;SDS011;32646;50.958;6.258;2023-12-04T03:45:54;7.32;;;2.83;;
46897;SDS011;32646;50.958;6.258;2023-12-04T03:48:21;8.60;;;3.83;;
46897;SDS011;32646;50.958;6.258;2023-12-04T03:50:48;10.55;;;3.38;;
46897;SDS011;32646;50.958;6.258;2023-12-04T03:53:14;8.75;;;3.75;;
46897;SDS011;32646;50.958;6.258;2023-12-04T03:55:41;6.47;;;2.58;;
46897;SDS011;32646;50.958;6.258;2023-12-04T03:58:07;8.32;;;3.60;;
46897;SDS011;32646;50.958;6.258;2023-12-04T04:00:34;7.65;;;3.80;;
46897;SDS011;32646;50.958;6.258;2023-12-04T04:03:01;7.18;;;3.28;;
46897;SDS011;32646;50.958;6.258;2023-12-04T04:05:27;5.93;;;3.08;;
46897;SDS011;32646;50.958;6.258;2023-12-04T04:07:54;6.55;;;2.50;;
46897;SDS011;32646;50.958;6.258;2023-12-04T04:10:20;10.45;;;2.90;;
46897;SDS011;32646;50.958;6.258;2023-12-04T04:12:47;6.20;;;3.08;;
46897;SDS011;32646;50.958;6.258;2023-12-04T04:15:14;9.05;;;3.42;;
46897;SDS011;32646;50.958;6.258;2023-12-04T04:17:40;6.72;;;2.97;;
46897;SDS011;32646;50.958;6.258;2023-12-04T04:20:07;7.70;;;3.53;;
46897;SDS011;32646;50.958;6.258;2023-12-04T04:22:34;6.28;;;2.85;;
46897;SDS011;32646;50.958;6.258;2023-12-04T04:25:01;8.05;;;3.47;;
46897;SDS011;32646;50.958;6.258;2023-12-04T04:27:28;4.72;;;1.95;;
46897;SDS011;32646;50.958;6.258;2023-12-04T04:29:55;5.93;;;2.83;;
46897;SDS011;32646;50.958;6.258;2023-12-04T04:32:22;5.85;;;2.33;;
46897;SDS011;32646;50.958;6.258;2023-12-04T04:34:48;7.38;;;3.70;;
46897;SDS011;32646;50.958;6.258;2023-12-04T04:37:15;8.02;;;3.70;;
46897;SDS011;32646;50.958;6.258;2023-12-04T04:39:42;8.73;;;2.97;;
46897;SDS011;32646;50.958;6.258;2023-12-04T04:42:09;8.23;;;2.33;;
46897;SDS011;32646;50.958;6.258;2023-12-04T04:44:35;5.78;;;2.85;;
46897;SDS011;32646;50.958;6.258;2023-12-04T04:47:02;5.80;;;2.35;;
46897;SDS011;32646;50.958;6.258;2023-12-04T04:49:29;6.40;;;2.65;;
46897;SDS011;32646;50.958;6.258;2023-12-04T04:51:55;7.07;;;2.58;;
46897;SDS011;32646;50.958;6.258;2023-12-04T04:54:22;9.25;;;2.83;;
46897;SDS011;32646;50.958;6.258;2023-12-04T04:56:49;3.10;;;1.48;;
46897;SDS011;32646;50.958;6.258;2023-12-04T04:59:15;7.03;;;2.75;;
46897;SDS011;32646;50.958;6.258;2023-12-04T05:01:42;6.85;;;3.00;;
46897;SDS011;32646;50.958;6.258;2023-12-04T05:04:08;4.88;;;1.55;;
46897;SDS011;32646;50.958;6.258;2023-12-04T05:06:35;6.68;;;2.65;;
46897;SDS011;32646;50.958;6.258;2023-12-04T05:09:02;5.40;;;2.67;;
46897;SDS011;32646;50.958;6.258;2023-12-04T05:11:29;6.40;;;2.72;;
46897;SDS011;32646;50.958;6.258;2023-12-04T05:13:55;6.10;;;2.53;;
46897;SDS011;32646;50.958;6.258;2023-12-04T05:16:22;5.68;;;2.17;;
46897;SDS011;32646;50.958;6.258;2023-12-04T05:18:48;6.05;;;1.95;;
46897;SDS011;32646;50.958;6.258;2023-12-04T05:21:15;4.85;;;2.13;;
46897;SDS011;32646;50.958;6.258;2023-12-04T05:23:42;7.32;;;2.63;;
46897;SDS011;32646;50.958;6.258;2023-12-04T05:26:08;5.72;;;2.15;;
46897;SDS011;32646;50.958;6.258;2023-12-04T05:28:35;9.38;;;2.50;;
46897;SDS011;32646;50.958;6.258;2023-12-04T05:31:02;5.82;;;2.30;;
46897;SDS011;32646;50.958;6.258;2023-12-04T05:33:28;5.03;;;2.08;;
46897;SDS011;32646;50.958;6.258;2023-12-04T05:35:55;5.53;;;2.47;;
46897;SDS011;32646;50.958;6.258;2023-12-04T05:38:22;5.07;;;2.22;;
46897;SDS011;32646;50.958;6.258;2023-12-04T05:40:48;4.97;;;1.90;;
46897;SDS011;32646;50.958;6.258;2023-12-04T05:43:15;5.45;;;2.13;;
46897;SDS011;32646;50.958;6.258;2023-12-04T05:45:42;6.97;;;2.30;;
46897;SDS011;32646;50.958;6.258;2023-12-04T05:48:09;6.00;;;2.53;;
46897;SDS011;32646;50.958;6.258;2023-12-04T05:50:35;5.53;;;2.05;;
46897;SDS011;32646;50.958;6.258;2023-12-04T05:53:02;5.82;;;2.42;;
46897;SDS011;32646;50.958;6.258;2023-12-04T05:55:29;6.63;;;1.83;;
46897;SDS011;32646;50.958;6.258;2023-12-04T05:57:55;5.70;;;2.30;;
46897;SDS011;32646;50.958;6.258;2023-12-04T06:00:22;6.40;;;2.28;;
46897;SDS011;32646;50.958;6.258;2023-12-04T06:02:53;7.32;;;2.60;;
46897;SDS011;32646;50.958;6.258;2023-12-04T06:05:20;6.38;;;2.35;;
46897;SDS011;32646;50.958;6.258;2023-12-04T06:07:47;4.13;;;2.00;;
46897;SDS011;32646;50.958;6.258;2023-12-04T06:10:13;7.28;;;2.92;;
46897;SDS011;32646;50.958;6.258;2023-12-04T06:12:40;7.68;;;2.70;;
46897;SDS011;32646;50.958;6.258;2023-12-04T06:15:07;6.90;;;3.10;;
46897;SDS011;32646;50.958;6.258;2023-12-04T06:17:34;8.02;;;2.83;;
46897;SDS011;32646;50.958;6.258;2023-12-04T06:20:00;7.43;;;3.55;;
46897;SDS011;32646;50.958;6.258;2023-12-04T06:22:27;8.82;;;4.35;;
46897;SDS011;32646;50.958;6.258;2023-12-04T06:24:54;5.43;;;3.13;;
46897;SDS011;32646;50.958;6.258;2023-12-04T06:27:21;4.78;;;1.98;;
46897;SDS011;32646;50.958;6.258;2023-12-04T06:29:48;4.57;;;1.95;;
46897;SDS011;32646;50.958;6.258;2023-12-04T06:32:18;5.75;;;2.40;;
46897;SDS011;32646;50.958;6.258;2023-12-04T06:34:45;4.55;;;2.13;;
46897;SDS011;32646;50.958;6.258;2023-12-04T06:37:13;5.80;;;2.22;;
46897;SDS011;32646;50.958;6.258;2023-12-04T06:39:40;5.93;;;2.15;;
46897;SDS011;32646;50.958;6.258;2023-12-04T06:42:07;3.13;;;2.10;;
46897;SDS011;32646;50.958;6.258;2023-12-04T06:44:35;8.27;;;2.38;;
46897;SDS011;32646;50.958;6.258;2023-12-04T06:47:02;9.30;;;2.67;;
46897;SDS011;32646;50.958;6.258;2023-12-04T06:49:30;6.15;;;2.85;;
46897;SDS011;32646;50.958;6.258;2023-12-04T06:51:58;6.07;;;2.00;;
46897;SDS011;32646;50.958;6.258;2023-12-04T06:54:28;8.23;;;2.78;;
46897;SDS011;32646;50.958;6.258;2023-12-04T06:56:54;5.65;;;2.63;;
46897;SDS011;32646;50.958;6.258;2023-12-04T06:59:21;4.22;;;2.20;;
46897;SDS011;32646;50.958;6.258;2023-12-04T07:01:48;5.82;;;2.30;;
46897;SDS011;32646;50.958;6.258;2023-12-04T07:04:15;6.72;;;2.50;;
46897;SDS011;32646;50.958;6.258;2023-12-04T07:06:42;7.68;;;2.97;;
46897;SDS011;32646;50.958;6.258;2023-12-04T07:09:08;5.35;;;2.80;;
46897;SDS011;32646;50.958;6.258;2023-12-04T07:11:35;6.30;;;2.45;;
46897;SDS011;32646;50.958;6.258;2023-12-04T07:14:01;5.70;;;2.85;;
46897;SDS011;32646;50.958;6.258;2023-12-04T07:16:28;6.90;;;2.78;;
46897;SDS011;32646;50.958;6.258;2023-12-04T07:18:54;4.85;;;1.23;;
46897;SDS011;32646;50.958;6.258;2023-12-04T07:21:21;7.60;;;2.75;;
46897;SDS011;32646;50.958;6.258;2023-12-04T07:23:48;5.38;;;2.38;;
46897;SDS011;32646;50.958;6.258;2023-12-04T07:26:15;6.45;;;2.95;;
46897;SDS011;32646;50.958;6.258;2023-12-04T07:28:41;7.07;;;3.03;;
46897;SDS011;32646;50.958;6.258;2023-12-04T07:31:08;8.05;;;2.53;;
46897;SDS011;32646;50.958;6.258;2023-12-04T07:33:34;5.25;;;2.22;;
46897;SDS011;32646;50.958;6.258;2023-12-04T07:36:01;8.02;;;2.83;;
46897;SDS011;32646;50.958;6.258;2023-12-04T07:38:28;8.05;;;2.35;;
46897;SDS011;32646;50.958;6.258;2023-12-04T07:40:54;4.65;;;2.00;;
46897;SDS011;32646;50.958;6.258;2023-12-04T07:43:21;7.57;;;3.47;;
46897;SDS011;32646;50.958;6.258;2023-12-04T07:45:48;5.88;;;2.35;;
46897;SDS011;32646;50.958;6.258;2023-12-04T07:48:15;7.45;;;3.53;;
46897;SDS011;32646;50.958;6.258;2023-12-04T07:50:41;6.82;;;2.80;;
46897;SDS011;32646;50.958;6.258;2023-12-04T07:53:08;7.40;;;2.33;;
46897;SDS011;32646;50.958;6.258;2023-12-04T07:55:35;7.88;;;3.05;;
46897;SDS011;32646;50.958;6.258;2023-12-04T07:58:01;5.95;;;2.75;;
46897;SDS011;32646;50.958;6.258;2023-12-04T08:00:28;7.47;;;3.10;;
46897;SDS011;32646;50.958;6.258;2023-12-04T08:02:54;9.30;;;3.42;;
46897;SDS011;32646;50.958;6.258;2023-12-04T08:05:21;6.13;;;3.42;;
46897;SDS011;32646;50.958;6.258;2023-12-04T08:07:48;8.15;;;3.22;;
46897;SDS011;32646;50.958;6.258;2023-12-04T08:10:14;7.43;;;3.15;;
46897;SDS011;32646;50.958;6.258;2023-12-04T08:12:43;8.07;;;3.40;;
46897;SDS011;32646;50.958;6.258;2023-12-04T08:15:11;8.02;;;4.28;;
46897;SDS011;32646;50.958;6.258;2023-12-04T08:17:38;9.48;;;4.63;;
46897;SDS011;32646;50.958;6.258;2023-12-04T08:20:04;6.60;;;2.88;;
46897;SDS011;32646;50.958;6.258;2023-12-04T08:22:32;6.75;;;2.63;;
46897;SDS011;32646;50.958;6.258;2023-12-04T08:24:58;6.72;;;3.38;;
46897;SDS011;32646;50.958;6.258;2023-12-04T08:27:25;8.35;;;3.60;;
46897;SDS011;32646;50.958;6.258;2023-12-04T08:29:52;9.13;;;3.70;;
46897;SDS011;32646;50.958;6.258;2023-12-04T08:32:18;7.93;;;3.95;;
46897;SDS011;32646;50.958;6.258;2023-12-04T08:34:45;6.25;;;3.17;;
46897;SDS011;32646;50.958;6.258;2023-12-04T08:37:11;7.10;;;3.17;;
46897;SDS011;32646;50.958;6.258;2023-12-04T08:39:38;9.88;;;4.40;;
46897;SDS011;32646;50.958;6.258;2023-12-04T08:42:05;7.00;;;2.35;;
46897;SDS011;32646;50.958;6.258;2023-12-04T08:44:37;6.90;;;2.78;;
46897;SDS011;32646;50.958;6.258;2023-12-04T08:47:04;7.93;;;3.33;;
46897;SDS011;32646;50.958;6.258;2023-12-04T08:49:31;11.68;;;3.80;;
46897;SDS011;32646;50.958;6.258;2023-12-04T08:52:08;11.20;;;4.95;;
46897;SDS011;32646;50.958;6.258;2023-12-04T08:54:34;8.48;;;3.50;;
46897;SDS011;32646;50.958;6.258;2023-12-04T08:57:04;6.22;;;2.50;;
46897;SDS011;32646;50.958;6.258;2023-12-04T08:59:32;21.45;;;4.03;;
46897;SDS011;32646;50.958;6.258;2023-12-04T09:01:59;5.20;;;2.65;;
46897;SDS011;32646;50.958;6.258;2023-12-04T09:04:25;8.38;;;3.55;;
46897;SDS011;32646;50.958;6.258;2023-12-04T09:06:52;4.82;;;2.70;;
46897;SDS011;32646;50.958;6.258;2023-12-04T09:09:22;7.15;;;2.97;;
46897;SDS011;32646;50.958;6.258;2023-12-04T09:11:48;6.82;;;3.28;;
46897;SDS011;32646;50.958;6.258;2023-12-04T09:14:15;8.90;;;3.53;;
46897;SDS011;32646;50.958;6.258;2023-12-04T09:16:42;7.90;;;3.30;;
46897;SDS011;32646;50.958;6.258;2023-12-04T09:19:09;7.07;;;4.05;;
46897;SDS011;32646;50.958;6.258;2023-12-04T09:21:35;9.27;;;4.32;;
46897;SDS011;32646;50.958;6.258;2023-12-04T09:24:02;7.32;;;2.92;;
46897;SDS011;32646;50.958;6.258;2023-12-04T09:26:29;6.95;;;2.88;;
46897;SDS011;32646;50.958;6.258;2023-12-04T09:28:57;7.80;;;2.80;;
46897;SDS011;32646;50.958;6.258;2023-12-04T09:31:23;6.15;;;3.20;;
46897;SDS011;32646;50.958;6.258;2023-12-04T09:33:51;4.70;;;2.20;;
46897;SDS011;32646;50.958;6.258;2023-12-04T09:36:18;5.53;;;2.65;;
46897;SDS011;32646;50.958;6.258;2023-12-04T09:38:44;7.07;;;3.03;;
46897;SDS011;32646;50.958;6.258;2023-12-04T09:41:11;6.22;;;3.13;;
46897;SDS011;32646;50.958;6.258;2023-12-04T09:43:38;7.47;;;2.70;;
46897;SDS011;32646;50.958;6.258;2023-12-04T09:46:06;7.82;;;2.88;;
46897;SDS011;32646;50.958;6.258;2023-12-04T09:48:34;6.00;;;2.97;;
46897;SDS011;32646;50.958;6.258;2023-12-04T09:51:02;7.97;;;3.30;;
46897;SDS011;32646;50.958;6.258;2023-12-04T09:53:29;7.75;;;3.20;;
46897;SDS011;32646;50.958;6.258;2023-12-04T09:55:58;10.82;;;3.67;;
46897;SDS011;32646;50.958;6.258;2023-12-04T09:58:27;6.38;;;2.90;;
46897;SDS011;32646;50.958;6.258;2023-12-04T10:00:54;4.65;;;2.60;;
46897;SDS011;32646;50.958;6.258;2023-12-04T10:03:21;6.07;;;3.28;;
46897;SDS011;32646;50.958;6.258;2023-12-04T10:05:48;6.40;;;3.55;;
46897;SDS011;32646;50.958;6.258;2023-12-04T10:08:15;6.60;;;2.65;;
46897;SDS011;32646;50.958;6.258;2023-12-04T10:10:41;8.02;;;3.03;;
46897;SDS011;32646;50.958;6.258;2023-12-04T10:13:08;8.13;;;2.60;;
46897;SDS011;32646;50.958;6.258;2023-12-04T10:15:42;8.05;;;3.47;;
46897;SDS011;32646;50.958;6.258;2023-12-04T10:18:23;7.00;;;2.17;;
46897;SDS011;32646;50.958;6.258;2023-12-04T10:20:55;6.07;;;2.65;;
46897;SDS011;32646;50.958;6.258;2023-12-04T10:25:49;5.88;;;3.78;;
46897;SDS011;32646;50.958;6.258;2023-12-04T10:28:16;6.30;;;3.10;;
46897;SDS011;32646;50.958;6.258;2023-12-04T10:30:43;6.55;;;3.10;;
46897;SDS011;32646;50.958;6.258;2023-12-04T10:33:11;7.65;;;3.00;;
46897;SDS011;32646;50.958;6.258;2023-12-04T10:35:39;7.20;;;3.47;;
46897;SDS011;32646;50.958;6.258;2023-12-04T10:38:06;10.63;;;4.55;;
46897;SDS011;32646;50.958;6.258;2023-12-04T10:40:34;8.32;;;3.40;;
46897;SDS011;32646;50.958;6.258;2023-12-04T10:45:44;5.68;;;2.53;;
46897;SDS011;32646;50.958;6.258;2023-12-04T10:48:13;7.97;;;3.97;;
46897;SDS011;32646;50.958;6.258;2023-12-04T10:50:48;6.18;;;3.00;;
46897;SDS011;32646;50.958;6.258;2023-12-04T10:53:16;5.45;;;3.03;;
46897;SDS011;32646;50.958;6.258;2023-12-04T10:55:43;7.75;;;3.42;;
46897;SDS011;32646;50.958;6.258;2023-12-04T10:58:14;7.15;;;2.92;;
46897;SDS011;32646;50.958;6.258;2023-12-04T11:00:48;8.02;;;3.03;;
46897;SDS011;32646;50.958;6.258;2023-12-04T11:03:18;8.05;;;3.67;;
46897;SDS011;32646;50.958;6.258;2023-12-04T11:06:02;5.28;;;2.58;;
46897;SDS011;32646;50.958;6.258;2023-12-04T11:08:32;6.30;;;2.55;;
46897;SDS011;32646;50.958;6.258;2023-12-04T11:11:02;5.57;;;2.78;;
46897;SDS011;32646;50.958;6.258;2023-12-04T11:13:30;6.90;;;2.63;;
46897;SDS011;32646;50.958;6.258;2023-12-04T11:16:02;5.90;;;2.75;;
46897;SDS011;32646;50.958;6.258;2023-12-04T11:18:35;6.53;;;3.17;;
46897;SDS011;32646;50.958;6.258;2023-12-04T11:21:07;6.65;;;3.00;;
46897;SDS011;32646;50.958;6.258;2023-12-04T11:23:35;6.15;;;3.17;;
46897;SDS011;32646;50.958;6.258;2023-12-04T11:26:03;7.43;;;3.58;;
46897;SDS011;32646;50.958;6.258;2023-12-04T11:28:34;4.30;;;2.08;;
46897;SDS011;32646;50.958;6.258;2023-12-04T11:31:01;6.68;;;2.78;;
46897;SDS011;32646;50.958;6.258;2023-12-04T11:33:32;6.60;;;2.40;;
46897;SDS011;32646;50.958;6.258;2023-12-04T11:36:20;7.03;;;2.60;;
46897;SDS011;32646;50.958;6.258;2023-12-04T11:38:48;6.88;;;3.10;;
46897;SDS011;32646;50.958;6.258;2023-12-04T11:41:19;8.13;;;3.00;;
46897;SDS011;32646;50.958;6.258;2023-12-04T11:43:52;6.93;;;3.20;;
46897;SDS011;32646;50.958;6.258;2023-12-04T11:46:21;9.27;;;3.03;;
46897;SDS011;32646;50.958;6.258;2023-12-04T11:48:50;6.70;;;2.85;;
46897;SDS011;32646;50.958;6.258;2023-12-04T11:54:09;6.47;;;3.45;;
46897;SDS011;32646;50.958;6.258;2023-12-04T11:56:36;7.05;;;3.67;;
46897;SDS011;32646;50.958;6.258;2023-12-04T11:59:05;6.53;;;3.08;;
46897;SDS011;32646;50.958;6.258;2023-12-04T12:01:36;8.48;;;2.92;;
46897;SDS011;32646;50.958;6.258;2023-12-04T12:04:06;6.47;;;2.83;;
46897;SDS011;32646;50.958;6.258;2023-12-04T12:06:33;6.38;;;3.10;;
46897;SDS011;32646;50.958;6.258;2023-12-04T12:09:01;8.90;;;3.95;;
46897;SDS011;32646;50.958;6.258;2023-12-04T12:11:27;8.70;;;3.10;;
46897;SDS011;32646;50.958;6.258;2023-12-04T12:13:54;5.88;;;3.08;;
46897;SDS011;32646;50.958;6.258;2023-12-04T12:16:21;15.27;;;4.93;;
46897;SDS011;32646;50.958;6.258;2023-12-04T12:18:48;8.25;;;4.35;;
46897;SDS011;32646;50.958;6.258;2023-12-04T12:21:15;4.05;;;1.98;;
46897;SDS011;32646;50.958;6.258;2023-12-04T12:23:42;7.22;;;3.45;;
46897;SDS011;32646;50.958;6.258;2023-12-04T12:26:10;9.50;;;4.43;;
46897;SDS011;32646;50.958;6.258;2023-12-04T12:28:36;8.00;;;3.22;;
46897;SDS011;32646;50.958;6.258;2023-12-04T12:31:03;7.43;;;3.45;;
46897;SDS011;32646;50.958;6.258;2023-12-04T12:33:30;6.72;;;3.55;;
46897;SDS011;32646;50.958;6.258;2023-12-04T12:35:57;9.95;;;4.22;;
46897;SDS011;32646;50.958;6.258;2023-12-04T12:38:30;7.43;;;3.28;;
46897;SDS011;32646;50.958;6.258;2023-12-04T12:40:56;9.38;;;3.47;;
46897;SDS011;32646;50.958;6.258;2023-12-04T12:43:23;7.15;;;3.25;;
46897;SDS011;32646;50.958;6.258;2023-12-04T12:45:53;11.23;;;4.70;;
46897;SDS011;32646;50.958;6.258;2023-12-04T12:48:20;9.60;;;4.40;;
46897;SDS011;32646;50.958;6.258;2023-12-04T12:50:46;8.02;;;4.18;;
46897;SDS011;32646;50.958;6.258;2023-12-04T12:53:14;10.02;;;4.68;;
46897;SDS011;32646;50.958;6.258;2023-12-04T12:55:40;14.75;;;5.18;;
46897;SDS011;32646;50.958;6.258;2023-12-04T12:58:10;9.68;;;4.75;;
46897;SDS011;32646;50.958;6.258;2023-12-04T13:00:37;10.35;;;4.85;;
46897;SDS011;32646;50.958;6.258;2023-12-04T13:03:06;9.63;;;4.18;;
46897;SDS011;32646;50.958;6.258;2023-12-04T13:05:41;8.38;;;4.10;;
46897;SDS011;32646;50.958;6.258;2023-12-04T13:08:07;9.95;;;3.88;;
46897;SDS011;32646;50.958;6.258;2023-12-04T13:10:34;7.75;;;4.18;;
46897;SDS011;32646;50.958;6.258;2023-12-04T13:13:01;12.77;;;4.63;;
46897;SDS011;32646;50.958;6.258;2023-12-04T13:15:27;9.15;;;4.30;;
46897;SDS011;32646;50.958;6.258;2023-12-04T13:17:54;11.85;;;5.47;;
46897;SDS011;32646;50.958;6.258;2023-12-04T13:20:21;8.10;;;4.28;;
46897;SDS011;32646;50.958;6.258;2023-12-04T13:22:47;7.07;;;3.92;;
46897;SDS011;32646;50.958;6.258;2023-12-04T13:25:14;8.48;;;3.97;;
46897;SDS011;32646;50.958;6.258;2023-12-04T13:27:41;11.48;;;5.05;;
46897;SDS011;32646;50.958;6.258;2023-12-04T13:30:08;9.23;;;4.43;;
46897;SDS011;32646;50.958;6.258;2023-12-04T13:32:35;9.95;;;4.60;;
46897;SDS011;32646;50.958;6.258;2023-12-04T13:35:05;12.25;;;5.45;;
46897;SDS011;32646;50.958;6.258;2023-12-04T13:37:33;7.55;;;3.75;;
46897;SDS011;32646;50.958;6.258;2023-12-04T13:40:01;9.25;;;5.03;;
46897;SDS011;32646;50.958;6.258;2023-12-04T13:42:31;6.05;;;2.85;;
46897;SDS011;32646;50.958;6.258;2023-12-04T13:44:59;8.00;;;3.83;;
46897;SDS011;32646;50.958;6.258;2023-12-04T13:47:26;5.88;;;3.47;;
46897;SDS011;32646;50.958;6.258;2023-12-04T13:49:53;10.23;;;4.32;;
46897;SDS011;32646;50.958;6.258;2023-12-04T13:52:20;7.88;;;3.83;;
46897;SDS011;32646;50.958;6.258;2023-12-04T13:54:47;6.80;;;3.55;;
46897;SDS011;32646;50.958;6.258;2023-12-04T13:57:14;8.98;;;4.20;;
46897;SDS011;32646;50.958;6.258;2023-12-04T13:59:41;10.38;;;4.82;;
46897;SDS011;32646;50.958;6.258;2023-12-04T14:02:07;7.65;;;3.47;;
46897;SDS011;32646;50.958;6.258;2023-12-04T14:04:34;9.45;;;3.83;;
46897;SDS011;32646;50.958;6.258;2023-12-04T14:07:01;6.15;;;3.72;;
46897;SDS011;32646;50.958;6.258;2023-12-04T14:09:31;7.38;;;3.47;;
46897;SDS011;32646;50.958;6.258;2023-12-04T14:11:58;11.63;;;3.95;;
46897;SDS011;32646;50.958;6.258;2023-12-04T14:14:24;9.35;;;3.65;;
46897;SDS011;32646;50.958;6.258;2023-12-04T14:16:51;7.50;;;3.53;;
46897;SDS011;32646;50.958;6.258;2023-12-04T14:19:17;8.70;;;3.65;;
46897;SDS011;32646;50.958;6.258;2023-12-04T14:21:44;6.72;;;3.58;;
46897;SDS011;32646;50.958;6.258;2023-12-04T14:24:11;10.02;;;4.47;;
46897;SDS011;32646;50.958;6.258;2023-12-04T14:26:37;9.50;;;4.40;;
46897;SDS011;32646;50.958;6.258;2023-12-04T14:29:04;7.00;;;3.28;;
46897;SDS011;32646;50.958;6.258;2023-12-04T14:31:30;12.43;;;5.10;;
46897;SDS011;32646;50.958;6.258;2023-12-04T14:33:57;8.20;;;4.25;;
46897;SDS011;32646;50.958;6.258;2023-12-04T14:36:24;9.43;;;4.25;;
46897;SDS011;32646;50.958;6.258;2023-12-04T14:38:50;10.32;;;4.38;;
46897;SDS011;32646;50.958;6.258;2023-12-04T14:41:17;7.78;;;3.25;;
46897;SDS011;32646;50.958;6.258;2023-12-04T14:43:44;10.60;;;4.07;;
46897;SDS011;32646;50.958;6.258;2023-12-04T14:46:10;10.10;;;4.82;;
46897;SDS011;32646;50.958;6.258;2023-12-04T14:48:37;7.47;;;3.67;;
46897;SDS011;32646;50.958;6.258;2023-12-04T14:51:04;6.93;;;3.50;;
46897;SDS011;32646;50.958;6.258;2023-12-04T14:53:32;7.75;;;4.07;;